Historyczne dane pomiarowe

Dodano dane terminowe – wersja testowa.

Dane z okresu 1951-2019

Wersja bazy: 1.34 [2019-03-16, lista zmian], aktualizacja planowana na 2019-04-15

Dane meteo z obszaru Polski uzyskane na podstawie danych udostępnionych przez Instytut Meteorologii i Gospodarki Wodnej – Państwowy Instytut Badawczy.

 

Wybierz Datę:    

       

TemperaturaWilgotnośćWiatrCiśnienieOpadyŚniegCzas trwania zjawisk
 Stacja t tx tn tng RH VA  wxwx mslp ppp RRR   cm mm wxwxwxwxwxwxwx
1987-08-14 15.5 21.3 10.1--- 3.7 1.3---- 5.4------------
1987-08-13 12.4 17.3 6.0--- 4.7 1.0---- 0.0------------
1987-08-12 11.8 17.7 7.4--- 5.0 2.3---- 0.2------------
1987-08-11 12.3 16.7 11.4--- 6.3 3.0---- 3.5------------
1987-08-10 14.8 19.0 13.2--- 7.0 2.3---- 7.1------------
1987-08-09 17.3 23.4 11.9--- 4.0 1.3---- 0.0------------
1987-08-08 13.8 19.9 10.1--- 4.3 1.3---- 0.0------------
1987-08-07 11.9 18.1 5.9--- 4.0 1.7---- 2.4------------
1987-08-06 11.8 16.4 8.1--- 5.7 2.7---- 3.0------------
1987-08-05 12.3 18.3 7.3--- 4.7 2.0---- 0.8------------
1987-08-04 14.7 18.2 9.1--- 4.3 1.3---- 4.1------------
1987-08-03 13.9 18.8 10.8--- 4.7 1.3---- 0.0------------
1987-08-02 14.5 18.7 12.1--- 7.3 2.0---- 2.2------------
1987-08-01 15.2 20.6 8.6--- 5.3 2.7---- 1.8------------
1987-07-31 15.5 19.7 13.8--- 6.7 2.3---- 3.5------------
1987-07-30 17.6 23.8 11.0--- 4.3 1.3---- 0.2------------
1987-07-29 13.6 19.9 10.5--- 4.0 2.0---- 0.0------------
1987-07-28 13.0 17.7 11.9--- 6.7 2.0---- 2.3------------
1987-07-27 11.8 16.2 7.1--- 7.3 2.7---- 1.1------------
1987-07-26 13.2 18.2 10.4--- 7.7 0.3---- 7.3------------
1987-07-25 18.3 24.1 15.2--- 5.7 0.7---- 5.4------------
1987-07-24 19.8 27.7 15.5--- 6.0 1.0---- 0.3------------
1987-07-23 19.2 28.5 12.0--- 2.3 0.7---- 12.3------------
1987-07-22 20.1 25.5 16.4--- 4.7 1.3---- 0.0------------
1987-07-21 18.0 25.2 9.4--- 2.3 1.0---- 0.6------------
1987-07-20 19.6 22.8 17.5--- 5.3 1.7---- 0.0------------
1987-07-19 21.6 29.1 17.9--- 6.7 2.0---- 2.8------------
1987-07-18 20.9 27.3 16.2--- 7.0 1.3---- 0.0------------
1987-07-17 19.3 26.8 12.7--- 7.3 2.0---- 4.6------------
1987-07-16 17.3 26.0 6.0--- 2.7 1.3---- 0.0------------
1987-07-15 15.5 22.3 5.2--- 1.7 1.0---- 0.0------------
1987-07-14 14.9 20.9 6.9--- 2.3 0.7---- 0.0------------
1987-07-13 17.8 23.4 10.6--- 3.3 1.0---- 0.0------------
1987-07-12 20.7 28.5 14.4--- 4.7 4.3---- 1.5------------
1987-07-11 15.4 23.0 6.4--- 3.7 2.0---- 0.0------------
1987-07-10 14.0 19.1 9.4--- 3.7 2.7---- 0.0------------
1987-07-09 16.5 23.9 14.0--- 8.0 1.0---- 3.7------------
1987-07-08 21.5 28.6 10.5--- 1.0 1.0---- 0.0------------
1987-07-07 17.9 25.5 7.6--- 1.0 1.0---- 0.0------------
1987-07-06 17.0 23.4 8.6--- 1.0 1.3---- 0.0------------
1987-07-05 15.6 20.5 12.2--- 6.3 1.3---- 0.0------------
1987-07-04 18.0 22.1 15.3--- 5.7 0.7---- 2.3------------
1987-07-03 18.0 22.0 14.5--- 7.0 0.7---- 0.0------------
1987-07-02 18.8 24.1 16.1--- 7.0 1.7---- 0.0------------
1987-07-01 24.0 30.5 16.8--- 1.7 1.0---- 0.0------------
1987-06-30 23.6 30.1 16.0--- 1.3 0.7---- 0.0------------
1987-06-29 19.9 26.1 14.0--- 5.3 0.3---- 0.0------------
1987-06-28 17.9 24.6 10.3--- 5.3 2.7---- 0.5------------
1987-06-27 17.6 22.1 14.8--- 4.7 1.3---- 0.0------------
1987-06-26 15.9 22.7 6.8--- 3.3 2.7---- 3.6------------
1987-06-25 14.4 16.4 11.6--- 3.3 2.7---- 0.0------------
1987-06-24 15.9 20.4 11.8--- 4.7 0.7---- 2.7------------
1987-06-23 15.9 19.8 13.7--- 7.0 1.3---- 2.1------------
1987-06-22 16.3 22.6 9.5--- 4.0 1.7---- 3.6------------
1987-06-21 16.6 23.8 6.4--- 2.3 1.3---- 0.0------------
1987-06-20 14.0 21.3 4.2--- 1.7 2.0---- 0.0------------
1987-06-19 11.5 17.1 5.6--- 2.7 2.3---- 0.5------------
1987-06-18 10.3 15.9 2.3--- 4.3 3.0---- 1.6------------
1987-06-17 10.9 15.4 7.9--- 5.0 1.7---- 0.0------------
1987-06-16 14.7 25.7 10.9--- 7.3 2.3---- 2.8------------
920.2 ms

 

Źródłem pochodzenia danych jest Instytut Meteorologii i Gospodarki Wodnej – Państwowy Instytut Badawczy. Dane Instytutu Meteorologii i Gospodarki Wodnej – Państwowego Instytutu Badawczego zostały przetworzone.

Dane źródłowe można odnaleźć na stronie https://dane.imgw.pl